Time;durP1;ratioP1;P1;durP2;ratioP2;P2;SDS_P1;SDS_P2;PMS_P1;PMS_P2;Temp;Humidity;BMP_temperature;BMP_pressure;BME280_temperature;BME280_humidity;BME280_pressure;Samples;Min_cycle;Max_cycle;Signal;HPM_P1;HPM_P2
2022/06/29 00:01:18;;;;;;;0.77;0.60;;;;;;;;;;5069571;28;20044;-63
2022/06/29 00:03:45;;;;;;;1.38;0.68;;;;;;;;;;5070308;28;20044;-63
2022/06/29 00:06:11;;;;;;;1.77;0.52;;;;;;;;;;5068032;28;20120;-60
2022/06/29 00:08:37;;;;;;;0.52;0.50;;;;;;;;;;5057235;28;20102;-62
2022/06/29 00:11:04;;;;;;;1.00;0.60;;;;;;;;;;5066521;28;20135;-63
2022/06/29 00:13:30;;;;;;;0.50;0.50;;;;;;;;;;5051685;28;20859;-63
2022/06/29 00:15:56;;;;;;;2.88;0.70;;;;;;;;;;5067476;28;20493;-62
2022/06/29 00:18:22;;;;;;;1.15;0.95;;;;;;;;;;5087216;28;20477;-63
2022/06/29 00:20:48;;;;;;;0.65;0.65;;;;;;;;;;5075376;28;20401;-63
2022/06/29 00:23:14;;;;;;;1.05;0.80;;;;;;;;;;5072246;28;20108;-62
2022/06/29 00:25:40;;;;;;;1.92;0.55;;;;;;;;;;5070761;28;20127;-62
2022/06/29 00:28:06;;;;;;;0.45;0.45;;;;;;;;;;5084266;28;20044;-62
2022/06/29 00:30:32;;;;;;;1.27;0.80;;;;;;;;;;5090029;28;20055;-62
2022/06/29 00:32:58;;;;;;;0.73;0.73;;;;;;;;;;5082710;28;20078;-63
2022/06/29 00:35:24;;;;;;;1.55;0.73;;;;;;;;;;5067498;28;20568;-63
2022/06/29 00:37:51;;;;;;;0.80;0.68;;;;;;;;;;5070653;28;20059;-63
2022/06/29 00:40:17;;;;;;;0.93;0.77;;;;;;;;;;5084348;28;20063;-62
2022/06/29 00:42:43;;;;;;;0.85;0.60;;;;;;;;;;5073150;28;20048;-63
2022/06/29 00:45:09;;;;;;;0.73;0.73;;;;;;;;;;5076031;28;20049;-63
2022/06/29 00:47:35;;;;;;;0.60;0.60;;;;;;;;;;5083980;28;20647;-63
2022/06/29 00:50:01;;;;;;;1.00;0.70;;;;;;;;;;5072648;28;20564;-62
2022/06/29 00:52:29;;;;;;;2.05;0.75;;;;;;;;;;5076688;28;20556;-62
2022/06/29 00:54:56;;;;;;;1.13;0.80;;;;;;;;;;5064323;28;20044;-63
2022/06/29 00:57:27;;;;;;;0.70;0.70;;;;;;;;;;5053693;28;20044;-63
2022/06/29 00:59:54;;;;;;;2.13;1.00;;;;;;;;;;5071072;28;20131;-63
2022/06/29 01:02:22;;;;;;;0.82;0.63;;;;;;;;;;5088475;28;20055;-63
2022/06/29 01:04:49;;;;;;;1.23;0.85;;;;;;;;;;5060608;28;20067;-61
2022/06/29 01:07:16;;;;;;;0.50;0.50;;;;;;;;;;5084872;28;20048;-61
2022/06/29 01:09:45;;;;;;;1.85;0.88;;;;;;;;;;5061818;28;20074;-62
2022/06/29 01:12:13;;;;;;;1.20;0.70;;;;;;;;;;5071687;28;20417;-63
2022/06/29 01:14:43;;;;;;;0.85;0.70;;;;;;;;;;5087622;28;20055;-62
2022/06/29 01:17:11;;;;;;;1.17;0.80;;;;;;;;;;5072594;28;20045;-62
2022/06/29 01:19:37;;;;;;;0.93;0.80;;;;;;;;;;5067299;28;20598;-63
2022/06/29 01:22:10;;;;;;;0.77;0.68;;;;;;;;;;5068177;28;20052;-63
2022/06/29 01:24:36;;;;;;;1.08;0.80;;;;;;;;;;5069458;28;20045;-62
2022/06/29 01:27:02;;;;;;;0.75;0.65;;;;;;;;;;5069947;28;20075;-63
2022/06/29 01:29:29;;;;;;;1.85;1.10;;;;;;;;;;5087738;28;20127;-62
2022/06/29 01:31:55;;;;;;;1.75;0.70;;;;;;;;;;5071555;28;20059;-62
2022/06/29 01:34:22;;;;;;;0.80;0.80;;;;;;;;;;5068518;28;20055;-62
2022/06/29 01:36:48;;;;;;;0.90;0.90;;;;;;;;;;5076525;28;20485;-63
2022/06/29 01:39:15;;;;;;;1.25;0.70;;;;;;;;;;5090025;28;20073;-63
2022/06/29 01:41:41;;;;;;;1.83;0.93;;;;;;;;;;5082710;28;20131;-63
2022/06/29 01:44:07;;;;;;;0.82;0.73;;;;;;;;;;5069930;28;20401;-66
2022/06/29 01:46:34;;;;;;;0.50;0.50;;;;;;;;;;5068744;28;20459;-63
2022/06/29 01:49:00;;;;;;;0.88;0.70;;;;;;;;;;5069853;28;20044;-63
2022/06/29 01:51:26;;;;;;;0.88;0.63;;;;;;;;;;5070398;28;20089;-63
2022/06/29 01:53:52;;;;;;;1.30;0.90;;;;;;;;;;5084682;28;20040;-63
2022/06/29 01:56:18;;;;;;;1.80;0.70;;;;;;;;;;5063153;28;20048;-63
2022/06/29 01:58:45;;;;;;;2.28;0.75;;;;;;;;;;5089360;28;20040;-63
2022/06/29 02:01:11;;;;;;;1.40;0.98;;;;;;;;;;5089525;28;20131;-63
2022/06/29 02:03:37;;;;;;;1.75;0.80;;;;;;;;;;5062123;28;20044;-63
2022/06/29 02:06:03;;;;;;;0.98;0.80;;;;;;;;;;5057090;28;20081;-62
2022/06/29 02:08:30;;;;;;;1.00;0.68;;;;;;;;;;5069176;28;20080;-62
2022/06/29 02:10:56;;;;;;;0.77;0.60;;;;;;;;;;5073705;28;20044;-62
2022/06/29 02:13:22;;;;;;;0.80;0.70;;;;;;;;;;5064099;28;20040;-60
2022/06/29 02:15:48;;;;;;;1.63;0.85;;;;;;;;;;5051230;28;20409;-63
2022/06/29 02:18:14;;;;;;;1.15;0.77;;;;;;;;;;5072263;28;20048;-63
2022/06/29 02:20:40;;;;;;;1.83;0.80;;;;;;;;;;5079211;28;20040;-62
2022/06/29 02:23:06;;;;;;;1.80;0.90;;;;;;;;;;5083589;28;20040;-62
2022/06/29 02:25:32;;;;;;;0.77;0.77;;;;;;;;;;5089065;28;20105;-63
2022/06/29 02:27:58;;;;;;;0.73;0.60;;;;;;;;;;5063651;28;20056;-62
2022/06/29 02:34:43;;;;;;;2.42;0.98;;;;;;;;;;5085668;28;20123;-61
2022/06/29 02:35:56;;;;;;;0.90;0.90;;;;;;;;;;5055054;28;20102;-62
2022/06/29 02:38:22;;;;;;;1.10;0.80;;;;;;;;;;5069041;28;20458;-63
2022/06/29 02:40:48;;;;;;;1.48;0.90;;;;;;;;;;5089625;28;20044;-62
2022/06/29 02:43:14;;;;;;;0.80;0.80;;;;;;;;;;5085653;28;20131;-63
2022/06/29 02:45:40;;;;;;;0.82;0.70;;;;;;;;;;5087186;28;20040;-62
2022/06/29 02:48:07;;;;;;;0.90;0.88;;;;;;;;;;5083326;28;20126;-63
2022/06/29 02:50:33;;;;;;;0.95;0.63;;;;;;;;;;5070029;28;20553;-63
2022/06/29 02:52:59;;;;;;;1.15;0.80;;;;;;;;;;5073014;28;20139;-63
2022/06/29 02:55:25;;;;;;;4.22;0.80;;;;;;;;;;5082508;28;20072;-60
2022/06/29 02:57:51;;;;;;;0.57;0.57;;;;;;;;;;5092164;28;20044;-63
2022/06/29 03:00:17;;;;;;;0.80;0.80;;;;;;;;;;5092360;28;20047;-63
2022/06/29 03:02:43;;;;;;;1.95;0.85;;;;;;;;;;5077513;28;20044;-63
2022/06/29 03:05:10;;;;;;;0.60;0.60;;;;;;;;;;5081075;28;20121;-61
2022/06/29 03:07:36;;;;;;;0.80;0.80;;;;;;;;;;5071777;28;20045;-63
2022/06/29 03:10:02;;;;;;;0.77;0.75;;;;;;;;;;5072474;28;20048;-63
2022/06/29 03:12:29;;;;;;;1.67;1.02;;;;;;;;;;5071908;28;20052;-60
2022/06/29 03:14:55;;;;;;;0.80;0.80;;;;;;;;;;5072280;28;20041;-62
2022/06/29 03:17:21;;;;;;;1.23;0.90;;;;;;;;;;5072109;28;20045;-63
2022/06/29 03:19:47;;;;;;;1.08;0.95;;;;;;;;;;5071780;28;20048;-62
2022/06/29 03:22:13;;;;;;;0.93;0.77;;;;;;;;;;5064581;28;20044;-62
2022/06/29 03:24:39;;;;;;;1.05;0.77;;;;;;;;;;5071659;28;20093;-63
2022/06/29 03:27:05;;;;;;;0.88;0.88;;;;;;;;;;5071960;28;20489;-64
2022/06/29 03:29:32;;;;;;;0.93;0.73;;;;;;;;;;5071802;28;20048;-63
2022/06/29 03:31:58;;;;;;;2.13;0.90;;;;;;;;;;5071756;28;20052;-63
2022/06/29 03:34:24;;;;;;;1.00;0.88;;;;;;;;;;5053980;28;20063;-63
2022/06/29 03:36:50;;;;;;;0.90;0.90;;;;;;;;;;5063905;28;20156;-63
2022/06/29 03:39:16;;;;;;;0.73;0.73;;;;;;;;;;5034625;28;20485;-63
2022/06/29 03:41:42;;;;;;;0.85;0.70;;;;;;;;;;5045399;28;20090;-63
2022/06/29 03:44:09;;;;;;;1.33;0.80;;;;;;;;;;5072022;28;20040;-63
2022/06/29 03:46:35;;;;;;;0.90;0.90;;;;;;;;;;5066058;28;20049;-62
2022/06/29 03:49:01;;;;;;;0.70;0.70;;;;;;;;;;5051993;28;20182;-63
2022/06/29 03:51:27;;;;;;;1.38;0.82;;;;;;;;;;5050090;28;20072;-62
2022/06/29 03:53:53;;;;;;;0.85;0.80;;;;;;;;;;5051393;28;20049;-62
2022/06/29 03:56:19;;;;;;;0.70;0.70;;;;;;;;;;5051717;28;20059;-63
2022/06/29 03:58:45;;;;;;;3.53;0.90;;;;;;;;;;5058062;28;20401;-62
2022/06/29 04:01:11;;;;;;;1.08;0.70;;;;;;;;;;5053924;28;20088;-62
2022/06/29 04:03:37;;;;;;;0.85;0.80;;;;;;;;;;5051441;28;20497;-63
2022/06/29 04:06:03;;;;;;;1.98;0.98;;;;;;;;;;5049631;28;20052;-63
2022/06/29 04:08:29;;;;;;;4.18;1.02;;;;;;;;;;5033794;28;20052;-63
2022/06/29 04:10:55;;;;;;;0.73;0.73;;;;;;;;;;5051077;28;20054;-63
2022/06/29 04:13:24;;;;;;;2.05;1.02;;;;;;;;;;5033875;28;20051;-63
2022/06/29 04:15:50;;;;;;;0.75;0.63;;;;;;;;;;5050284;28;20556;-62
2022/06/29 04:18:16;;;;;;;1.20;0.98;;;;;;;;;;5051569;28;20540;-62
2022/06/29 04:23:27;;;;;;;1.08;0.90;;;;;;;;;;5071290;28;20452;-63
2022/06/29 04:25:53;;;;;;;0.70;0.70;;;;;;;;;;5052933;28;20335;-63
2022/06/29 04:28:19;;;;;;;1.23;0.77;;;;;;;;;;5070489;28;20106;-62
2022/06/29 04:30:46;;;;;;;1.10;0.85;;;;;;;;;;5070189;28;20560;-63
2022/06/29 04:33:12;;;;;;;0.70;0.70;;;;;;;;;;5069581;28;20057;-63
2022/06/29 04:35:38;;;;;;;1.17;0.85;;;;;;;;;;5065064;28;20163;-62
2022/06/29 04:38:04;;;;;;;0.90;0.90;;;;;;;;;;5033227;28;20084;-62
2022/06/29 04:40:30;;;;;;;0.60;0.60;;;;;;;;;;5051086;28;20048;-63
2022/06/29 04:42:56;;;;;;;0.70;0.70;;;;;;;;;;5050213;28;20051;-63
2022/06/29 04:48:06;;;;;;;1.80;0.80;;;;;;;;;;5050692;28;20063;-63
2022/06/29 04:50:32;;;;;;;0.68;0.68;;;;;;;;;;5082084;28;20049;-63
2022/06/29 04:52:59;;;;;;;0.90;0.90;;;;;;;;;;5070244;28;20508;-63
2022/06/29 04:55:28;;;;;;;1.05;0.90;;;;;;;;;;5062325;28;20076;-63
2022/06/29 04:57:54;;;;;;;0.98;0.90;;;;;;;;;;5050119;28;20057;-63
2022/06/29 05:00:20;;;;;;;1.67;0.70;;;;;;;;;;5050253;28;20051;-63
2022/06/29 05:02:46;;;;;;;0.70;0.70;;;;;;;;;;5032154;28;20084;-63
2022/06/29 05:05:12;;;;;;;1.92;0.80;;;;;;;;;;5048546;28;20103;-62
2022/06/29 05:07:38;;;;;;;0.70;0.70;;;;;;;;;;5069538;28;20045;-62
2022/06/29 05:10:05;;;;;;;1.08;0.85;;;;;;;;;;5069693;28;20501;-63
2022/06/29 05:12:31;;;;;;;0.93;0.90;;;;;;;;;;5065128;28;20676;-63
2022/06/29 05:14:57;;;;;;;0.63;0.63;;;;;;;;;;5031330;28;20604;-63
2022/06/29 05:17:23;;;;;;;0.80;0.80;;;;;;;;;;5032163;28;20420;-63
2022/06/29 05:19:49;;;;;;;0.90;0.80;;;;;;;;;;5055198;28;20063;-61
2022/06/29 05:22:15;;;;;;;1.05;0.70;;;;;;;;;;5069151;28;20099;-63
2022/06/29 05:24:41;;;;;;;0.68;0.68;;;;;;;;;;5065543;28;20049;-63
2022/06/29 05:27:08;;;;;;;0.60;0.60;;;;;;;;;;5050151;28;20102;-64
2022/06/29 05:29:34;;;;;;;0.70;0.60;;;;;;;;;;5050201;28;20045;-63
2022/06/29 05:32:00;;;;;;;0.60;0.60;;;;;;;;;;5032047;28;20144;-63
2022/06/29 05:34:26;;;;;;;0.80;0.80;;;;;;;;;;5050501;28;20186;-63
2022/06/29 05:36:52;;;;;;;1.40;0.80;;;;;;;;;;5067515;28;20063;-63
2022/06/29 05:39:18;;;;;;;0.70;0.70;;;;;;;;;;5070005;28;20041;-63
2022/06/29 05:41:44;;;;;;;0.80;0.70;;;;;;;;;;5057333;28;20072;-63
2022/06/29 05:44:11;;;;;;;0.82;0.70;;;;;;;;;;5050078;28;20037;-63
2022/06/29 05:46:37;;;;;;;0.75;0.68;;;;;;;;;;5049591;28;20084;-63
2022/06/29 05:49:03;;;;;;;0.60;0.60;;;;;;;;;;5049595;28;20045;-63
2022/06/29 05:51:29;;;;;;;0.93;0.85;;;;;;;;;;5048160;28;20145;-63
2022/06/29 05:53:55;;;;;;;0.82;0.82;;;;;;;;;;5049830;28;20048;-63
2022/06/29 05:56:22;;;;;;;1.75;0.70;;;;;;;;;;5049726;28;20395;-64
2022/06/29 05:58:49;;;;;;;0.70;0.70;;;;;;;;;;5049439;28;20089;-64
2022/06/29 06:01:15;;;;;;;0.75;0.70;;;;;;;;;;5049602;28;20132;-63
2022/06/29 06:03:41;;;;;;;1.35;0.80;;;;;;;;;;5049569;28;20045;-61
2022/06/29 06:06:07;;;;;;;0.75;0.75;;;;;;;;;;5054926;28;20053;-63
2022/06/29 06:08:33;;;;;;;0.50;0.50;;;;;;;;;;5069924;28;20178;-63
2022/06/29 06:11:01;;;;;;;0.70;0.70;;;;;;;;;;5069356;28;20055;-63
2022/06/29 06:13:27;;;;;;;0.80;0.70;;;;;;;;;;5069795;28;20044;-63
2022/06/29 06:15:53;;;;;;;0.82;0.80;;;;;;;;;;5068253;28;20059;-63
2022/06/29 06:18:19;;;;;;;0.57;0.57;;;;;;;;;;5053496;28;20052;-63
2022/06/29 06:20:45;;;;;;;0.70;0.70;;;;;;;;;;5063255;28;20063;-61
2022/06/29 06:23:11;;;;;;;0.73;0.73;;;;;;;;;;5073467;28;20051;-63
2022/06/29 06:25:37;;;;;;;0.60;0.60;;;;;;;;;;5073348;28;20049;-63
2022/06/29 06:28:05;;;;;;;0.60;0.60;;;;;;;;;;5072593;28;20051;-63
2022/06/29 06:30:31;;;;;;;1.17;1.00;;;;;;;;;;5072614;28;20468;-63
2022/06/29 06:32:57;;;;;;;1.13;0.93;;;;;;;;;;5072373;28;20080;-63
2022/06/29 06:35:23;;;;;;;0.63;0.63;;;;;;;;;;5087044;28;20102;-63
2022/06/29 06:37:52;;;;;;;0.73;0.70;;;;;;;;;;5070912;28;20053;-63
2022/06/29 06:43:03;;;;;;;0.50;0.50;;;;;;;;;;5052523;28;20057;-63
2022/06/29 06:45:29;;;;;;;1.10;0.70;;;;;;;;;;5052849;28;20056;-64
2022/06/29 06:47:55;;;;;;;1.02;0.70;;;;;;;;;;5066928;28;20436;-63
2022/06/29 06:50:21;;;;;;;1.02;0.73;;;;;;;;;;5071356;28;20111;-63
2022/06/29 06:52:47;;;;;;;0.73;0.68;;;;;;;;;;5072593;28;20052;-61
2022/06/29 06:55:14;;;;;;;0.70;0.65;;;;;;;;;;5065996;28;20049;-63
2022/06/29 06:57:41;;;;;;;0.88;0.80;;;;;;;;;;5058284;28;20128;-63
2022/06/29 07:00:07;;;;;;;0.77;0.60;;;;;;;;;;5034498;28;20053;-63
2022/06/29 07:02:33;;;;;;;0.70;0.70;;;;;;;;;;5035054;28;20743;-63
2022/06/29 07:04:59;;;;;;;0.77;0.77;;;;;;;;;;5051223;28;20049;-61
2022/06/29 07:07:25;;;;;;;0.73;0.73;;;;;;;;;;5069564;28;20060;-63
2022/06/29 07:09:51;;;;;;;0.65;0.65;;;;;;;;;;5072195;28;20053;-63
2022/06/29 07:12:17;;;;;;;0.98;0.80;;;;;;;;;;5072573;28;20497;-64
2022/06/29 07:14:43;;;;;;;0.80;0.80;;;;;;;;;;5063816;28;20041;-63
2022/06/29 07:17:09;;;;;;;1.15;0.80;;;;;;;;;;5056370;28;20229;-64
2022/06/29 07:19:35;;;;;;;0.73;0.73;;;;;;;;;;5054642;28;20044;-63
2022/06/29 07:22:01;;;;;;;0.60;0.60;;;;;;;;;;5058771;28;20127;-64
2022/06/29 07:24:27;;;;;;;0.80;0.80;;;;;;;;;;5071061;28;20079;-64
2022/06/29 07:26:53;;;;;;;0.80;0.80;;;;;;;;;;5065210;28;20052;-63
2022/06/29 07:29:20;;;;;;;0.95;0.68;;;;;;;;;;5068362;28;20059;-64
2022/06/29 07:31:46;;;;;;;0.68;0.68;;;;;;;;;;5052564;28;20489;-64
2022/06/29 07:34:12;;;;;;;0.70;0.70;;;;;;;;;;5052178;28;20538;-63
2022/06/29 07:36:38;;;;;;;0.70;0.70;;;;;;;;;;5054770;28;20060;-63
2022/06/29 07:39:04;;;;;;;0.57;0.57;;;;;;;;;;5058502;28;20063;-65
2022/06/29 07:41:30;;;;;;;0.60;0.60;;;;;;;;;;5065412;28;20051;-63
2022/06/29 07:43:56;;;;;;;1.05;0.80;;;;;;;;;;5071132;28;20047;-64
2022/06/29 07:46:22;;;;;;;3.95;1.30;;;;;;;;;;5071839;28;20050;-62
2022/06/29 07:48:48;;;;;;;3.25;1.00;;;;;;;;;;5054334;28;20048;-63
2022/06/29 07:51:14;;;;;;;1.02;1.00;;;;;;;;;;5060060;28;20110;-63
2022/06/29 07:53:40;;;;;;;1.65;1.10;;;;;;;;;;5086394;28;20036;-63
2022/06/29 07:56:06;;;;;;;2.33;1.10;;;;;;;;;;5079875;28;20062;-62
2022/06/29 07:58:33;;;;;;;12.13;2.00;;;;;;;;;;5078113;28;20123;-63
2022/06/29 08:00:59;;;;;;;2.03;1.08;;;;;;;;;;5077468;28;20040;-63
2022/06/29 08:03:25;;;;;;;3.92;1.33;;;;;;;;;;5062758;28;20076;-64
2022/06/29 08:05:51;;;;;;;1.20;1.02;;;;;;;;;;5065385;28;20037;-60
2022/06/29 08:08:17;;;;;;;1.40;1.10;;;;;;;;;;5033971;28;20174;-64
2022/06/29 08:10:43;;;;;;;2.10;0.95;;;;;;;;;;5084591;28;20497;-65
2022/06/29 08:13:09;;;;;;;106.10;10.43;;;;;;;;;;5091473;28;20119;-67
2022/06/29 08:15:35;;;;;;;7.53;1.58;;;;;;;;;;5076708;28;20398;-65
2022/06/29 08:18:01;;;;;;;1.15;1.05;;;;;;;;;;5081839;28;20472;-65
2022/06/29 08:20:28;;;;;;;7.30;1.00;;;;;;;;;;5090026;28;20047;-64
2022/06/29 08:22:55;;;;;;;2.08;1.10;;;;;;;;;;5073541;28;20409;-61
2022/06/29 08:25:21;;;;;;;1.52;1.05;;;;;;;;;;5063347;28;20441;-61
2022/06/29 08:27:52;;;;;;;1.02;0.90;;;;;;;;;;5059396;28;20394;-62
2022/06/29 08:30:18;;;;;;;1.50;1.10;;;;;;;;;;5066163;28;20052;-65
2022/06/29 08:32:45;;;;;;;3.22;0.90;;;;;;;;;;5079099;28;20456;-64
2022/06/29 08:35:11;;;;;;;1.45;1.00;;;;;;;;;;5060744;28;20529;-62
2022/06/29 08:37:38;;;;;;;0.82;0.50;;;;;;;;;;5050896;28;20048;-63
2022/06/29 08:40:08;;;;;;;0.80;0.70;;;;;;;;;;5070134;28;20147;-62
2022/06/29 08:42:36;;;;;;;1.85;0.93;;;;;;;;;;5044402;28;20063;-63
2022/06/29 08:45:03;;;;;;;1.65;1.05;;;;;;;;;;5060632;28;20048;-63
2022/06/29 08:47:30;;;;;;;1.98;0.95;;;;;;;;;;5086840;28;20052;-63
2022/06/29 08:49:56;;;;;;;1.10;0.80;;;;;;;;;;5069168;28;20043;-62
2022/06/29 08:52:25;;;;;;;1.05;0.80;;;;;;;;;;5065812;28;20049;-62
2022/06/29 08:54:53;;;;;;;5.57;1.00;;;;;;;;;;5068734;28;20048;-63
2022/06/29 08:57:20;;;;;;;1.83;0.73;;;;;;;;;;5044757;28;20101;-63
2022/06/29 08:59:46;;;;;;;3.75;1.30;;;;;;;;;;5057665;28;20040;-62
2022/06/29 09:02:13;;;;;;;1.58;1.17;;;;;;;;;;5067351;28;20447;-65
2022/06/29 09:04:40;;;;;;;3.97;1.08;;;;;;;;;;5082210;28;20063;-65
2022/06/29 09:07:06;;;;;;;2.70;1.10;;;;;;;;;;5088658;28;20043;-66
2022/06/29 09:09:52;;;;;;;2.00;0.73;;;;;;;;;;5091152;28;20051;-65
2022/06/29 09:12:18;;;;;;;1.67;0.80;;;;;;;;;;5090249;28;20523;-66
2022/06/29 09:14:44;;;;;;;2.30;1.08;;;;;;;;;;5080019;28;20037;-64
2022/06/29 09:17:11;;;;;;;2.13;0.90;;;;;;;;;;5049854;28;20045;-65
2022/06/29 09:19:37;;;;;;;2.95;1.17;;;;;;;;;;5051025;28;20135;-66
2022/06/29 09:22:04;;;;;;;3.17;1.15;;;;;;;;;;5064535;28;20102;-65
2022/06/29 09:24:32;;;;;;;1.75;0.98;;;;;;;;;;5070164;28;20091;-65
2022/06/29 09:27:03;;;;;;;2.33;1.00;;;;;;;;;;5050370;28;20057;-61
2022/06/29 09:29:30;;;;;;;4.13;1.10;;;;;;;;;;5050836;28;20049;-65
2022/06/29 09:32:07;;;;;;;3.67;1.27;;;;;;;;;;5032667;28;20394;-65
2022/06/29 09:34:34;;;;;;;2.10;1.17;;;;;;;;;;5068280;28;20053;-65
2022/06/29 09:37:01;;;;;;;4.68;1.10;;;;;;;;;;5048348;28;20059;-61
2022/06/29 09:39:37;;;;;;;1.95;1.40;;;;;;;;;;5050798;28;20044;-66
2022/06/29 09:42:04;;;;;;;2.20;1.30;;;;;;;;;;5060334;28;20195;-65
2022/06/29 09:44:31;;;;;;;3.67;1.23;;;;;;;;;;5050606;28;20044;-65
2022/06/29 09:46:57;;;;;;;2.67;1.05;;;;;;;;;;5050524;28;20390;-67
2022/06/29 09:49:27;;;;;;;4.32;1.80;;;;;;;;;;5063806;28;20401;-66
2022/06/29 09:51:57;;;;;;;2.85;1.70;;;;;;;;;;5063717;28;20053;-67
2022/06/29 09:54:36;;;;;;;3.67;1.48;;;;;;;;;;5054554;28;20041;-66
2022/06/29 09:57:02;;;;;;;2.25;1.33;;;;;;;;;;5053539;28;20045;-62
2022/06/29 10:05:04;;;;;;;3.65;1.50;;;;;;;;;;5048189;28;20425;-62
2022/06/29 10:07:30;;;;;;;1.42;1.00;;;;;;;;;;5073936;28;20049;-70
2022/06/29 10:09:58;;;;;;;2.05;1.33;;;;;;;;;;5082819;28;20045;-66
2022/06/29 10:15:21;;;;;;;1.63;1.20;;;;;;;;;;5073491;28;20048;-66
2022/06/29 10:17:53;;;;;;;2.85;1.40;;;;;;;;;;5074028;28;20408;-66
2022/06/29 10:20:35;;;;;;;1.52;1.40;;;;;;;;;;5071996;28;20048;-66
2022/06/29 10:23:01;;;;;;;4.20;1.30;;;;;;;;;;5074300;28;20053;-65
2022/06/29 10:25:27;;;;;;;1.88;1.30;;;;;;;;;;5055852;28;20053;-67
2022/06/29 10:28:10;;;;;;;3.20;1.50;;;;;;;;;;5073966;28;20097;-69
2022/06/29 10:30:36;;;;;;;3.55;1.85;;;;;;;;;;5060735;28;20053;-65
2022/06/29 10:33:21;;;;;;;3.72;1.65;;;;;;;;;;5067553;28;20059;-64
2022/06/29 10:36:04;;;;;;;2.40;1.60;;;;;;;;;;5067585;28;20763;-69
2022/06/29 10:38:33;;;;;;;6.55;1.77;;;;;;;;;;5073558;28;20497;-66
2022/06/29 10:41:10;;;;;;;4.15;1.70;;;;;;;;;;5073924;28;20102;-67
2022/06/29 10:43:39;;;;;;;2.95;1.70;;;;;;;;;;5073580;28;20049;-66
2022/06/29 10:46:05;;;;;;;3.00;1.60;;;;;;;;;;5073181;28;20220;-64
2022/06/29 10:48:31;;;;;;;3.25;1.80;;;;;;;;;;5073225;28;20405;-66
2022/06/29 10:50:58;;;;;;;3.08;1.63;;;;;;;;;;5069152;28;20049;-66
2022/06/29 10:53:25;;;;;;;5.43;1.70;;;;;;;;;;5053156;28;20080;-66
2022/06/29 10:55:52;;;;;;;3.55;1.52;;;;;;;;;;5053500;28;20171;-66
2022/06/29 10:58:19;;;;;;;2.42;1.75;;;;;;;;;;5069168;28;20394;-66
2022/06/29 11:00:51;;;;;;;2.50;1.55;;;;;;;;;;5071615;28;20514;-66
2022/06/29 11:03:22;;;;;;;3.08;1.40;;;;;;;;;;5072075;28;20044;-64
2022/06/29 11:14:05;;;;;;;2.38;1.52;;;;;;;;;;5072638;28;20048;-66
2022/06/29 11:16:36;;;;;;;3.25;1.55;;;;;;;;;;5063180;28;20077;-66
2022/06/29 11:19:02;;;;;;;3.25;1.60;;;;;;;;;;5035698;28;20053;-71
2022/06/29 11:21:28;;;;;;;3.50;1.63;;;;;;;;;;5060135;28;20053;-72
2022/06/29 11:23:55;;;;;;;8.93;2.10;;;;;;;;;;5073012;28;20127;-73
2022/06/29 11:26:27;;;;;;;2.53;1.70;;;;;;;;;;5072015;28;20125;-74
2022/06/29 11:28:53;;;;;;;4.28;1.75;;;;;;;;;;5054914;28;20044;-74
2022/06/29 11:31:19;;;;;;;1.92;1.40;;;;;;;;;;5071747;28;20097;-73
2022/06/29 11:33:50;;;;;;;3.45;1.63;;;;;;;;;;5072324;28;20044;-69
2022/06/29 11:36:17;;;;;;;2.95;1.60;;;;;;;;;;5067063;28;20059;-70
2022/06/29 11:38:47;;;;;;;2.33;1.50;;;;;;;;;;5054912;28;20087;-72
2022/06/29 11:41:21;;;;;;;3.92;1.95;;;;;;;;;;5072889;28;20044;-65
2022/06/29 11:43:57;;;;;;;18.80;3.35;;;;;;;;;;5052710;28;20049;-66
2022/06/29 11:46:27;;;;;;;6.78;2.83;;;;;;;;;;5051700;28;20182;-66
2022/06/29 11:51:48;;;;;;;6.57;1.77;;;;;;;;;;5070800;28;20059;-65
2022/06/29 11:54:14;;;;;;;7.60;2.40;;;;;;;;;;5072048;28;20041;-66
2022/06/29 11:56:42;;;;;;;7.80;2.40;;;;;;;;;;5072187;28;20063;-66
2022/06/29 11:59:10;;;;;;;12.55;2.42;;;;;;;;;;5072210;28;20048;-65
2022/06/29 12:01:36;;;;;;;8.50;2.30;;;;;;;;;;5042217;28;20490;-68
2022/06/29 12:04:03;;;;;;;10.93;2.28;;;;;;;;;;5072253;28;20056;-69
2022/06/29 12:06:30;;;;;;;7.57;2.05;;;;;;;;;;5069005;28;20922;-70
2022/06/29 12:08:57;;;;;;;8.43;2.72;;;;;;;;;;5072153;28;20478;-70
2022/06/29 12:11:23;;;;;;;5.60;2.45;;;;;;;;;;5071512;28;20056;-69
2022/06/29 12:13:50;;;;;;;9.73;2.40;;;;;;;;;;5071000;28;20059;-69
2022/06/29 12:16:16;;;;;;;27.25;4.90;;;;;;;;;;5071187;28;20052;-68
2022/06/29 12:18:42;;;;;;;5.63;2.58;;;;;;;;;;5070902;28;20044;-70
2022/06/29 12:21:09;;;;;;;4.32;2.33;;;;;;;;;;5069622;28;20122;-66
2022/06/29 12:23:36;;;;;;;3.83;2.10;;;;;;;;;;5070342;28;20040;-68
2022/06/29 12:26:02;;;;;;;6.80;2.10;;;;;;;;;;5070762;28;20043;-69
2022/06/29 12:28:28;;;;;;;5.65;2.20;;;;;;;;;;5070717;28;20481;-73
2022/06/29 12:30:54;;;;;;;2.78;1.85;;;;;;;;;;5071360;28;20044;-67
2022/06/29 12:33:21;;;;;;;3.35;2.10;;;;;;;;;;5067883;28;20064;-69
2022/06/29 12:35:47;;;;;;;4.03;2.10;;;;;;;;;;5068641;28;20051;-71
2022/06/29 12:38:14;;;;;;;3.67;1.80;;;;;;;;;;5054837;28;20052;-65
2022/06/29 12:40:40;;;;;;;3.25;2.05;;;;;;;;;;5052218;28;20036;-72
2022/06/29 12:43:06;;;;;;;4.30;2.17;;;;;;;;;;5061148;28;20486;-72
2022/06/29 12:45:32;;;;;;;3.55;1.80;;;;;;;;;;5049390;28;20051;-71
2022/06/29 12:47:58;;;;;;;3.33;1.75;;;;;;;;;;5067925;28;20451;-72
2022/06/29 12:50:25;;;;;;;3.65;1.75;;;;;;;;;;5047596;28;20517;-73
2022/06/29 12:52:51;;;;;;;2.65;1.73;;;;;;;;;;5059294;28;20052;-71
2022/06/29 12:55:18;;;;;;;3.22;1.65;;;;;;;;;;5084584;28;20051;-70
2022/06/29 12:57:45;;;;;;;2.63;1.75;;;;;;;;;;5082376;28;20442;-69
2022/06/29 13:00:11;;;;;;;3.63;2.35;;;;;;;;;;5062644;28;20107;-70
2022/06/29 13:02:38;;;;;;;2.40;1.80;;;;;;;;;;5081356;28;20059;-70
2022/06/29 13:05:04;;;;;;;2.92;1.80;;;;;;;;;;5056733;28;20049;-68
2022/06/29 13:07:31;;;;;;;6.43;2.10;;;;;;;;;;5067580;28;20060;-71
2022/06/29 13:09:58;;;;;;;2.50;1.48;;;;;;;;;;5056973;28;20045;-71
2022/06/29 13:12:25;;;;;;;3.70;1.90;;;;;;;;;;5058345;28;20078;-68
2022/06/29 13:14:52;;;;;;;3.40;1.88;;;;;;;;;;5072861;28;20066;-69
2022/06/29 13:17:18;;;;;;;5.28;1.95;;;;;;;;;;5089800;28;20554;-64
2022/06/29 13:19:44;;;;;;;2.80;1.83;;;;;;;;;;5045044;28;20051;-70
2022/06/29 13:22:12;;;;;;;3.50;1.80;;;;;;;;;;5059564;28;20132;-67
2022/06/29 13:24:38;;;;;;;5.13;1.90;;;;;;;;;;5063046;28;20668;-70
2022/06/29 13:27:04;;;;;;;3.88;1.63;;;;;;;;;;5050606;28;20053;-71
2022/06/29 13:29:30;;;;;;;2.05;1.50;;;;;;;;;;5052853;28;20056;-70
2022/06/29 13:31:56;;;;;;;2.97;1.60;;;;;;;;;;5058258;28;20048;-71
2022/06/29 13:34:26;;;;;;;3.25;1.98;;;;;;;;;;5063104;28;20048;-72
2022/06/29 13:36:54;;;;;;;4.15;2.30;;;;;;;;;;5066110;28;20419;-72
2022/06/29 13:39:21;;;;;;;4.55;2.33;;;;;;;;;;5069984;28;20063;-68
2022/06/29 13:41:47;;;;;;;3.70;2.35;;;;;;;;;;5070330;28;20044;-68
2022/06/29 13:44:14;;;;;;;3.72;2.13;;;;;;;;;;5070438;28;20409;-67
2022/06/29 13:46:40;;;;;;;2.45;1.88;;;;;;;;;;5069337;28;20245;-70
2022/06/29 13:49:06;;;;;;;2.42;1.63;;;;;;;;;;5042054;28;20103;-70
2022/06/29 13:51:32;;;;;;;3.10;1.77;;;;;;;;;;5040985;28;20125;-70
2022/06/29 13:53:58;;;;;;;2.60;1.80;;;;;;;;;;5063623;28;20091;-70
2022/06/29 13:56:24;;;;;;;2.28;1.65;;;;;;;;;;5048508;28;20041;-70
2022/06/29 13:58:50;;;;;;;2.40;1.63;;;;;;;;;;5067210;28;20051;-69
2022/06/29 14:01:16;;;;;;;3.13;1.98;;;;;;;;;;5070102;28;20101;-70
2022/06/29 14:03:43;;;;;;;6.82;2.08;;;;;;;;;;5069653;28;20113;-69
2022/06/29 14:06:09;;;;;;;2.92;1.80;;;;;;;;;;5068572;28;20044;-69
2022/06/29 14:08:35;;;;;;;1.92;1.50;;;;;;;;;;5069971;28;20048;-70
2022/06/29 14:11:01;;;;;;;2.33;1.60;;;;;;;;;;5061913;28;20053;-68
2022/06/29 14:13:28;;;;;;;2.03;1.52;;;;;;;;;;5049834;28;20076;-70
2022/06/29 14:15:54;;;;;;;1.67;1.45;;;;;;;;;;5034387;28;20113;-68
2022/06/29 14:18:20;;;;;;;2.80;1.80;;;;;;;;;;5030101;28;20094;-64
2022/06/29 14:20:46;;;;;;;3.00;1.63;;;;;;;;;;5030438;28;20052;-70
2022/06/29 14:23:13;;;;;;;2.17;1.55;;;;;;;;;;5046393;28;20181;-69
2022/06/29 14:25:39;;;;;;;3.35;2.00;;;;;;;;;;5017083;28;20756;-71
2022/06/29 14:28:05;;;;;;;5.45;2.63;;;;;;;;;;5050058;28;20052;-68
2022/06/29 14:30:32;;;;;;;4.32;2.15;;;;;;;;;;5048164;28;20067;-68
2022/06/29 14:32:58;;;;;;;4.30;2.60;;;;;;;;;;5042785;28;20041;-69
2022/06/29 14:35:24;;;;;;;5.60;2.70;;;;;;;;;;5047642;28;20049;-67
2022/06/29 14:37:50;;;;;;;5.38;2.45;;;;;;;;;;5051893;28;20048;-67
2022/06/29 14:40:17;;;;;;;4.10;2.47;;;;;;;;;;5053253;28;20051;-67
2022/06/29 14:42:43;;;;;;;3.95;2.17;;;;;;;;;;5052267;28;20049;-66
2022/06/29 14:45:10;;;;;;;3.05;1.92;;;;;;;;;;5053453;28;20041;-66
2022/06/29 14:47:36;;;;;;;6.18;2.25;;;;;;;;;;5043472;28;20049;-66
2022/06/29 14:50:02;;;;;;;5.28;2.67;;;;;;;;;;5052181;28;20558;-67
2022/06/29 14:52:28;;;;;;;26.33;6.00;;;;;;;;;;5052432;28;20092;-68
2022/06/29 14:54:55;;;;;;;8.13;2.55;;;;;;;;;;5053566;28;20052;-67
2022/06/29 14:57:22;;;;;;;3.65;2.60;;;;;;;;;;5042434;28;20049;-66
2022/06/29 14:59:48;;;;;;;4.45;2.50;;;;;;;;;;5051249;28;20044;-67
2022/06/29 15:02:15;;;;;;;3.70;2.20;;;;;;;;;;5048629;28;20045;-67
2022/06/29 15:04:42;;;;;;;8.40;2.35;;;;;;;;;;5040757;28;20131;-67
2022/06/29 15:07:08;;;;;;;3.95;2.10;;;;;;;;;;5066592;28;20569;-67
2022/06/29 15:09:34;;;;;;;3.28;2.20;;;;;;;;;;5040810;28;20096;-66
2022/06/29 15:12:00;;;;;;;9.80;2.83;;;;;;;;;;5033120;28;20462;-66